Time;durP1;ratioP1;P1;durP2;ratioP2;P2;SDS_P1;SDS_P2;PMS_P1;PMS_P2;Temp;Humidity;BMP_temperature;BMP_pressure;BME280_temperature;BME280_humidity;BME280_pressure;Samples;Min_cycle;Max_cycle;Signal;HPM_P1;HPM_P2
2022/04/26 03:37:32;;;;;;;0.10;0.10;;;;;;;;;;4790681;29;20354;-90
2022/04/26 03:39:58;;;;;;;0.10;0.10;;;;;;;;;;4775624;29;20099;-90
2022/04/26 03:42:24;;;;;;;0.10;0.10;;;;;;;;;;4807653;29;20046;-90
2022/04/26 03:44:51;;;;;;;0.10;0.10;;;;;;;;;;4793812;29;20042;-91
2022/04/26 03:47:17;;;;;;;0.20;0.20;;;;;;;;;;4793691;29;20046;-90
2022/04/26 03:49:43;;;;;;;0.10;0.10;;;;;;;;;;4793679;29;20206;-91
2022/04/26 03:52:09;;;;;;;0.20;0.20;;;;;;;;;;4776898;29;20399;-90
2022/04/26 03:54:35;;;;;;;0.10;0.10;;;;;;;;;;4782423;29;20042;-90
2022/04/26 03:57:01;;;;;;;0.10;0.10;;;;;;;;;;4793135;29;20095;-90
2022/04/26 03:59:27;;;;;;;0.10;0.10;;;;;;;;;;4793461;29;20046;-91
2022/04/26 04:01:53;;;;;;;0.10;0.10;;;;;;;;;;4794049;29;20096;-90
2022/04/26 04:04:19;;;;;;;0.10;0.10;;;;;;;;;;4775980;29;20514;-91
2022/04/26 04:06:45;;;;;;;0.10;0.10;;;;;;;;;;4798863;29;20414;-90
2022/04/26 04:09:11;;;;;;;0.10;0.10;;;;;;;;;;4808864;29;20133;-91
2022/04/26 04:11:37;;;;;;;0.10;0.10;;;;;;;;;;4793710;29;20524;-91
2022/04/26 04:14:03;;;;;;;0.10;0.10;;;;;;;;;;4796785;29;20042;-91
2022/04/26 04:16:29;;;;;;;0.10;0.10;;;;;;;;;;4776604;29;20046;-91
2022/04/26 04:21:40;;;;;;;0.10;0.10;;;;;;;;;;4789821;29;20403;-89
2022/04/26 04:24:06;;;;;;;0.10;0.10;;;;;;;;;;4775887;29;20055;-90
2022/04/26 04:26:32;;;;;;;0.10;0.10;;;;;;;;;;4808762;29;20046;-90
2022/04/26 04:28:58;;;;;;;0.10;0.10;;;;;;;;;;4789904;29;20499;-90
2022/04/26 04:31:23;;;;;;;0.10;0.10;;;;;;;;;;4775272;29;20043;-89
2022/04/26 04:33:49;;;;;;;0.10;0.10;;;;;;;;;;4774610;29;20102;-90
2022/04/26 04:36:15;;;;;;;0.10;0.10;;;;;;;;;;4778734;29;20099;-89
2022/04/26 04:38:41;;;;;;;0.10;0.10;;;;;;;;;;4807889;29;20050;-90
2022/04/26 04:41:08;;;;;;;0.10;0.10;;;;;;;;;;4807728;29;20049;-90
2022/04/26 04:43:34;;;;;;;0.10;0.10;;;;;;;;;;4792607;29;20047;-89
2022/04/26 04:46:00;;;;;;;0.30;0.30;;;;;;;;;;4790919;29;20146;-90
2022/04/26 04:48:27;;;;;;;0.10;0.10;;;;;;;;;;4774758;29;20521;-90
2022/04/26 04:50:53;;;;;;;0.10;0.10;;;;;;;;;;4774826;29;20087;-89
2022/04/26 04:53:19;;;;;;;0.10;0.10;;;;;;;;;;4789715;29;20139;-90
2022/04/26 04:55:45;;;;;;;0.10;0.10;;;;;;;;;;4789677;29;20057;-90
2022/04/26 04:58:11;;;;;;;0.10;0.10;;;;;;;;;;4789203;29;20046;-89
2022/04/26 05:00:37;;;;;;;0.10;0.10;;;;;;;;;;4783347;29;20042;-91
2022/04/26 05:03:03;;;;;;;0.20;0.20;;;;;;;;;;4792339;29;20139;-94
2022/04/26 05:05:29;;;;;;;0.10;0.10;;;;;;;;;;4789846;29;20046;-92
2022/04/26 05:07:56;;;;;;;0.10;0.10;;;;;;;;;;4782738;29;20049;-93
2022/04/26 05:10:22;;;;;;;0.10;0.10;;;;;;;;;;4793159;29;20474;-94
2022/04/26 05:12:48;;;;;;;0.10;0.10;;;;;;;;;;4778849;29;20078;-93
2022/04/26 05:15:14;;;;;;;0.10;0.10;;;;;;;;;;4774791;29;20050;-91
2022/04/26 05:17:40;;;;;;;0.10;0.10;;;;;;;;;;4774548;29;20474;-93
2022/04/26 05:20:08;;;;;;;0.10;0.10;;;;;;;;;;4787432;29;20050;-93
2022/04/26 05:24:53;;;;;;;0.10;0.10;;;;;;;;;;4774759;29;20051;-91
2022/04/26 05:25:20;;;;;;;0.10;0.10;;;;;;;;;;4790914;29;20063;-92
2022/04/26 05:27:46;;;;;;;4.72;0.30;;;;;;;;;;4789517;29;20142;-92
2022/04/26 05:30:12;;;;;;;0.10;0.10;;;;;;;;;;4789849;29;20085;-92
2022/04/26 05:32:38;;;;;;;0.10;0.10;;;;;;;;;;4789365;29;20046;-92
2022/04/26 05:35:05;;;;;;;0.20;0.20;;;;;;;;;;4790459;29;20050;-91
2022/04/26 05:37:32;;;;;;;0.20;0.20;;;;;;;;;;4807229;29;20050;-91
2022/04/26 05:40:02;;;;;;;0.10;0.10;;;;;;;;;;4792417;29;20042;-92
2022/04/26 05:42:28;;;;;;;0.10;0.10;;;;;;;;;;4807604;29;20399;-91
2022/04/26 05:44:54;;;;;;;0.10;0.10;;;;;;;;;;4807401;29;20391;-92
2022/04/26 05:47:20;;;;;;;0.13;0.13;;;;;;;;;;4807219;29;20052;-91
2022/04/26 05:49:46;;;;;;;0.10;0.10;;;;;;;;;;4795056;29;20050;-93
2022/04/26 05:52:19;;;;;;;0.10;0.10;;;;;;;;;;4793054;29;20038;-96
2022/04/26 05:54:45;;;;;;;0.10;0.10;;;;;;;;;;4796174;29;20491;-93
2022/04/26 05:57:10;;;;;;;0.20;0.20;;;;;;;;;;4796128;29;20091;-93
2022/04/26 05:59:37;;;;;;;0.10;0.10;;;;;;;;;;4795860;29;20050;-92
2022/04/26 06:02:03;;;;;;;0.10;0.10;;;;;;;;;;4795336;29;20137;-94
2022/04/26 06:04:29;;;;;;;0.10;0.10;;;;;;;;;;4780707;29;20046;-89
2022/04/26 06:06:55;;;;;;;0.10;0.10;;;;;;;;;;4778814;29;20046;-91
2022/04/26 06:09:21;;;;;;;0.10;0.10;;;;;;;;;;4779774;29;20044;-90
2022/04/26 06:11:47;;;;;;;0.10;0.10;;;;;;;;;;4777616;29;20572;-89
2022/04/26 06:14:14;;;;;;;0.10;0.10;;;;;;;;;;4809465;29;20049;-89
2022/04/26 06:16:40;;;;;;;0.10;0.10;;;;;;;;;;4794809;29;20050;-91
2022/04/26 06:19:06;;;;;;;0.20;0.20;;;;;;;;;;4795268;29;20056;-88
2022/04/26 06:21:32;;;;;;;0.20;0.20;;;;;;;;;;4799583;29;20039;-90
2022/04/26 06:23:58;;;;;;;0.10;0.10;;;;;;;;;;4811783;29;20058;-90
2022/04/26 06:26:25;;;;;;;0.10;0.10;;;;;;;;;;4796144;29;20049;-90
2022/04/26 06:28:51;;;;;;;0.10;0.10;;;;;;;;;;4796804;29;20038;-92
2022/04/26 06:31:17;;;;;;;0.10;0.10;;;;;;;;;;4795686;29;20049;-89
2022/04/26 06:33:42;;;;;;;0.13;0.13;;;;;;;;;;4807274;29;20042;-90
2022/04/26 06:36:08;;;;;;;0.10;0.10;;;;;;;;;;4809983;29;20074;-91
2022/04/26 06:38:34;;;;;;;0.10;0.10;;;;;;;;;;4792744;29;20045;-89
2022/04/26 06:41:00;;;;;;;0.15;0.15;;;;;;;;;;4778648;29;20133;-91
2022/04/26 06:43:29;;;;;;;0.20;0.20;;;;;;;;;;4775536;29;20054;-91
2022/04/26 06:45:55;;;;;;;0.10;0.10;;;;;;;;;;4789574;29;20102;-92
2022/04/26 06:48:21;;;;;;;0.10;0.10;;;;;;;;;;4803607;29;20050;-91
2022/04/26 06:50:49;;;;;;;0.13;0.13;;;;;;;;;;4788237;29;20050;-91
2022/04/26 06:53:15;;;;;;;0.10;0.10;;;;;;;;;;4784835;29;20101;-91
2022/04/26 06:55:41;;;;;;;0.10;0.10;;;;;;;;;;4812160;29;20054;-92
2022/04/26 06:58:07;;;;;;;0.10;0.10;;;;;;;;;;4790187;29;20497;-90
2022/04/26 07:00:33;;;;;;;0.10;0.10;;;;;;;;;;4783355;29;20049;-91
2022/04/26 07:02:59;;;;;;;0.20;0.20;;;;;;;;;;4801874;29;20239;-90
2022/04/26 07:05:25;;;;;;;0.10;0.10;;;;;;;;;;4804946;29;20171;-90
2022/04/26 07:07:52;;;;;;;0.10;0.10;;;;;;;;;;4779097;29;20043;-90
2022/04/26 07:10:18;;;;;;;0.10;0.10;;;;;;;;;;4768974;29;20108;-90
2022/04/26 07:12:44;;;;;;;0.10;0.10;;;;;;;;;;4783114;29;20049;-90
2022/04/26 07:15:10;;;;;;;0.10;0.10;;;;;;;;;;4789768;29;20106;-90
2022/04/26 07:17:40;;;;;;;0.10;0.10;;;;;;;;;;4784683;29;20057;-90
2022/04/26 07:20:06;;;;;;;0.35;0.35;;;;;;;;;;4801807;29;20566;-89
2022/04/26 07:22:32;;;;;;;0.10;0.10;;;;;;;;;;4801056;29;20270;-90
2022/04/26 07:24:58;;;;;;;0.10;0.10;;;;;;;;;;4786533;29;20062;-90
2022/04/26 07:27:24;;;;;;;0.10;0.10;;;;;;;;;;4801252;29;20059;-89
2022/04/26 07:29:50;;;;;;;0.10;0.10;;;;;;;;;;4785984;29;20463;-90
2022/04/26 07:32:16;;;;;;;0.30;0.30;;;;;;;;;;4785971;29;20518;-90
2022/04/26 07:34:42;;;;;;;0.10;0.10;;;;;;;;;;4786542;29;20054;-90
2022/04/26 07:37:08;;;;;;;0.10;0.10;;;;;;;;;;4786512;29;20127;-90
2022/04/26 07:39:35;;;;;;;0.10;0.10;;;;;;;;;;4793918;29;20120;-89
2022/04/26 07:42:02;;;;;;;0.10;0.10;;;;;;;;;;4808186;29;20089;-89
2022/04/26 07:44:28;;;;;;;0.10;0.10;;;;;;;;;;4792983;29;20082;-90
2022/04/26 07:46:54;;;;;;;0.10;0.10;;;;;;;;;;4807092;29;20507;-92
2022/04/26 07:49:21;;;;;;;0.10;0.10;;;;;;;;;;4787746;29;20087;-90
2022/04/26 07:51:47;;;;;;;0.20;0.20;;;;;;;;;;4789828;29;20067;-88
2022/04/26 07:54:13;;;;;;;0.10;0.10;;;;;;;;;;4791967;29;20050;-88
2022/04/26 07:56:39;;;;;;;0.20;0.20;;;;;;;;;;4807887;29;20332;-89
2022/04/26 07:59:06;;;;;;;0.10;0.10;;;;;;;;;;4804757;29;20043;-89
2022/04/26 08:01:32;;;;;;;0.10;0.10;;;;;;;;;;4796811;29;20067;-88
2022/04/26 08:03:58;;;;;;;0.20;0.20;;;;;;;;;;4807601;29;20141;-88
2022/04/26 08:06:24;;;;;;;0.20;0.20;;;;;;;;;;4807434;29;20476;-88
2022/04/26 08:08:50;;;;;;;0.10;0.10;;;;;;;;;;4790940;29;20628;-88
2022/04/26 08:11:16;;;;;;;0.28;0.28;;;;;;;;;;4792719;29;20137;-88
2022/04/26 08:13:42;;;;;;;0.20;0.20;;;;;;;;;;4792553;29;20065;-88
2022/04/26 08:16:09;;;;;;;0.15;0.15;;;;;;;;;;4793317;29;20047;-89
2022/04/26 08:18:35;;;;;;;0.10;0.10;;;;;;;;;;4806030;29;20046;-89
2022/04/26 08:21:01;;;;;;;0.20;0.20;;;;;;;;;;4807285;29;20129;-89
2022/04/26 08:23:27;;;;;;;0.10;0.10;;;;;;;;;;4807245;29;20134;-88
2022/04/26 08:28:37;;;;;;;0.10;0.10;;;;;;;;;;4789449;29;20051;-89
2022/04/26 08:31:05;;;;;;;0.15;0.15;;;;;;;;;;4789312;29;20082;-89
2022/04/26 08:33:31;;;;;;;0.10;0.10;;;;;;;;;;4789011;29;20047;-89
2022/04/26 08:35:57;;;;;;;0.10;0.10;;;;;;;;;;4785078;29;20046;-88
2022/04/26 08:38:23;;;;;;;0.10;0.10;;;;;;;;;;4792560;29;20403;-89
2022/04/26 08:40:49;;;;;;;0.10;0.10;;;;;;;;;;4791876;29;20049;-89
2022/04/26 08:43:15;;;;;;;0.10;0.10;;;;;;;;;;4806795;29;20050;-89
2022/04/26 08:45:41;;;;;;;0.10;0.10;;;;;;;;;;4807401;29;20098;-89
2022/04/26 08:51:04;;;;;;;0.10;0.10;;;;;;;;;;4822758;29;20042;-89
2022/04/26 08:53:32;;;;;;;0.10;0.10;;;;;;;;;;4789196;29;20080;-88
2022/04/26 08:56:01;;;;;;;0.80;0.20;;;;;;;;;;4791881;29;20547;-89
2022/04/26 08:58:29;;;;;;;0.10;0.10;;;;;;;;;;4791976;29;20141;-88
2022/04/26 09:01:08;;;;;;;0.10;0.10;;;;;;;;;;4786042;29;20107;-88
2022/04/26 09:03:34;;;;;;;0.10;0.10;;;;;;;;;;4788919;29;20047;-89
2022/04/26 09:06:08;;;;;;;0.10;0.10;;;;;;;;;;4774155;29;20050;-89
2022/04/26 09:08:37;;;;;;;0.10;0.10;;;;;;;;;;4789149;29;20406;-89
2022/04/26 09:11:03;;;;;;;0.10;0.10;;;;;;;;;;4789741;29;20050;-89
2022/04/26 09:13:37;;;;;;;0.52;0.20;;;;;;;;;;4773932;29;20050;-89
2022/04/26 09:16:06;;;;;;;0.20;0.20;;;;;;;;;;4789082;29;20385;-89
2022/04/26 09:18:33;;;;;;;0.10;0.10;;;;;;;;;;4788764;29;20062;-89
2022/04/26 09:21:00;;;;;;;0.10;0.10;;;;;;;;;;4788849;29;20046;-88
2022/04/26 09:23:27;;;;;;;0.10;0.10;;;;;;;;;;4803566;29;20424;-89
2022/04/26 09:25:54;;;;;;;0.15;0.15;;;;;;;;;;4803623;29;20568;-89
2022/04/26 09:28:24;;;;;;;0.10;0.10;;;;;;;;;;4775112;29;20202;-89
2022/04/26 09:30:50;;;;;;;0.10;0.10;;;;;;;;;;4792914;29;20525;-89
2022/04/26 09:33:32;;;;;;;0.10;0.10;;;;;;;;;;4810397;29;20051;-89
2022/04/26 09:36:01;;;;;;;0.10;0.10;;;;;;;;;;4795167;29;20141;-89
2022/04/26 09:38:31;;;;;;;0.10;0.10;;;;;;;;;;4810217;29;20073;-89
2022/04/26 09:41:01;;;;;;;0.20;0.20;;;;;;;;;;4809085;29;20042;-89
2022/04/26 09:43:28;;;;;;;0.10;0.10;;;;;;;;;;4809942;29;20054;-88
2022/04/26 09:45:57;;;;;;;0.10;0.10;;;;;;;;;;4795308;29;20376;-91
2022/04/26 09:48:30;;;;;;;0.10;0.10;;;;;;;;;;4810259;29;20367;-91
2022/04/26 09:50:59;;;;;;;0.10;0.10;;;;;;;;;;4777623;29;20252;-90
2022/04/26 09:53:26;;;;;;;0.10;0.10;;;;;;;;;;4777395;29;20054;-90
2022/04/26 09:55:54;;;;;;;0.63;0.63;;;;;;;;;;4792034;29;20488;-89
2022/04/26 09:58:20;;;;;;;0.10;0.10;;;;;;;;;;4776960;29;20047;-90
2022/04/26 10:00:49;;;;;;;0.20;0.20;;;;;;;;;;4778770;29;20158;-89
2022/04/26 10:03:16;;;;;;;0.10;0.10;;;;;;;;;;4805436;29;20115;-89
2022/04/26 10:05:45;;;;;;;0.10;0.10;;;;;;;;;;4809032;29;20099;-89
2022/04/26 10:08:11;;;;;;;0.20;0.20;;;;;;;;;;4776826;29;20532;-89
2022/04/26 10:10:38;;;;;;;0.10;0.10;;;;;;;;;;4776718;29;20043;-88
2022/04/26 10:15:48;;;;;;;0.10;0.10;;;;;;;;;;4791707;29;20062;-88
2022/04/26 10:18:34;;;;;;;0.20;0.20;;;;;;;;;;4809639;29;20047;-89
2022/04/26 10:21:03;;;;;;;1.38;1.27;;;;;;;;;;4809544;29;20073;-89
2022/04/26 10:23:29;;;;;;;0.20;0.20;;;;;;;;;;4809582;29;20078;-90
2022/04/26 10:26:25;;;;;;;0.10;0.10;;;;;;;;;;4805861;29;20055;-89
2022/04/26 10:29:01;;;;;;;0.10;0.10;;;;;;;;;;4779291;29;20130;-88
2022/04/26 10:31:35;;;;;;;0.32;0.28;;;;;;;;;;4788940;29;20050;-89
2022/04/26 10:34:03;;;;;;;0.10;0.10;;;;;;;;;;4802046;29;20042;-89
2022/04/26 10:36:29;;;;;;;0.10;0.10;;;;;;;;;;4801746;29;20095;-89
2022/04/26 10:39:08;;;;;;;0.10;0.10;;;;;;;;;;4832190;29;20088;-90
2022/04/26 10:41:34;;;;;;;0.10;0.10;;;;;;;;;;4835744;29;20050;-89
2022/04/26 10:44:15;;;;;;;0.20;0.20;;;;;;;;;;4803353;29;20563;-89
2022/04/26 10:46:41;;;;;;;0.10;0.10;;;;;;;;;;4799003;29;20081;-89
2022/04/26 10:49:23;;;;;;;0.10;0.10;;;;;;;;;;4795445;29;20494;-88
2022/04/26 10:51:56;;;;;;;0.20;0.20;;;;;;;;;;4812047;29;20450;-89
2022/04/26 10:54:44;;;;;;;0.10;0.10;;;;;;;;;;4797470;29;20050;-89
2022/04/26 10:57:10;;;;;;;0.20;0.20;;;;;;;;;;4779634;29;20097;-89
2022/04/26 10:59:40;;;;;;;0.30;0.30;;;;;;;;;;4792454;29;20061;-88
2022/04/26 11:02:07;;;;;;;0.10;0.10;;;;;;;;;;4805414;29;20050;-89
2022/04/26 11:04:33;;;;;;;0.20;0.20;;;;;;;;;;4808582;29;20043;-89
2022/04/26 11:06:59;;;;;;;0.20;0.20;;;;;;;;;;4796577;29;20045;-88
2022/04/26 11:09:25;;;;;;;0.10;0.10;;;;;;;;;;4793972;29;20042;-89
2022/04/26 11:11:52;;;;;;;0.10;0.10;;;;;;;;;;4808351;29;20042;-89
2022/04/26 11:14:20;;;;;;;0.20;0.20;;;;;;;;;;4793810;29;20499;-89
2022/04/26 11:16:55;;;;;;;0.10;0.10;;;;;;;;;;4766958;29;20051;-89
2022/04/26 11:19:28;;;;;;;0.10;0.10;;;;;;;;;;4775569;29;20095;-89
2022/04/26 11:21:54;;;;;;;0.10;0.10;;;;;;;;;;4775408;29;20130;-88
2022/04/26 11:29:53;;;;;;;0.10;0.10;;;;;;;;;;4808293;29;20491;-88
2022/04/26 11:32:34;;;;;;;0.10;0.10;;;;;;;;;;4793230;29;20053;-88
2022/04/26 11:35:01;;;;;;;0.20;0.20;;;;;;;;;;4797313;29;20046;-87
2022/04/26 11:37:27;;;;;;;0.10;0.10;;;;;;;;;;4776348;29;20080;-89
2022/04/26 11:39:53;;;;;;;0.20;0.20;;;;;;;;;;4790825;29;20043;-92
2022/04/26 11:42:20;;;;;;;0.13;0.13;;;;;;;;;;4807217;29;20105;-90
2022/04/26 11:44:59;;;;;;;0.10;0.10;;;;;;;;;;4808156;29;20058;-90
2022/04/26 11:47:45;;;;;;;0.10;0.10;;;;;;;;;;4808335;29;20050;-90
2022/04/26 11:50:11;;;;;;;0.20;0.20;;;;;;;;;;4806769;29;20046;-90
2022/04/26 11:52:37;;;;;;;0.10;0.10;;;;;;;;;;4789736;29;20046;-89
2022/04/26 11:55:04;;;;;;;0.10;0.10;;;;;;;;;;4797620;29;20128;-90
2022/04/26 11:57:34;;;;;;;0.10;0.10;;;;;;;;;;4811149;29;20136;-90
2022/04/26 12:00:00;;;;;;;0.10;0.10;;;;;;;;;;4788123;29;20078;-91
2022/04/26 12:02:29;;;;;;;0.30;0.30;;;;;;;;;;4789859;29;20523;-89
2022/04/26 12:04:56;;;;;;;0.10;0.10;;;;;;;;;;4774792;29;20485;-89
2022/04/26 12:07:22;;;;;;;0.10;0.10;;;;;;;;;;4790511;29;20507;-89
2022/04/26 12:09:47;;;;;;;0.10;0.10;;;;;;;;;;4806764;29;20146;-89
2022/04/26 12:12:14;;;;;;;0.10;0.10;;;;;;;;;;4807530;29;20038;-89
2022/04/26 12:14:41;;;;;;;0.10;0.10;;;;;;;;;;4792665;29;20050;-89
2022/04/26 12:17:31;;;;;;;0.10;0.10;;;;;;;;;;4792507;29;20460;-89
2022/04/26 12:19:57;;;;;;;0.20;0.20;;;;;;;;;;4789504;29;20055;-89
2022/04/26 12:22:26;;;;;;;0.10;0.10;;;;;;;;;;4774467;29;20385;-87
2022/04/26 12:24:52;;;;;;;0.28;0.28;;;;;;;;;;4771022;30;20128;-87
2022/04/26 12:27:19;;;;;;;0.10;0.10;;;;;;;;;;4771688;30;20114;-89
2022/04/26 12:29:46;;;;;;;0.10;0.10;;;;;;;;;;4775079;29;20491;-88
2022/04/26 12:32:13;;;;;;;0.10;0.10;;;;;;;;;;4804184;29;20403;-89
2022/04/26 12:34:52;;;;;;;0.10;0.10;;;;;;;;;;4804183;29;20043;-89
2022/04/26 12:37:20;;;;;;;0.10;0.10;;;;;;;;;;4789398;29;20099;-89
2022/04/26 12:39:48;;;;;;;0.10;0.10;;;;;;;;;;4771290;30;20074;-89
2022/04/26 12:42:15;;;;;;;0.10;0.10;;;;;;;;;;4786168;29;20058;-89
2022/04/26 12:44:55;;;;;;;0.30;0.30;;;;;;;;;;4771176;30;20047;-88
2022/04/26 12:52:51;;;;;;;0.10;0.10;;;;;;;;;;4808339;29;20416;-89
2022/04/26 12:55:26;;;;;;;0.20;0.20;;;;;;;;;;4806978;29;20069;-89
2022/04/26 12:57:56;;;;;;;0.10;0.10;;;;;;;;;;4776719;29;20051;-89
2022/04/26 13:00:22;;;;;;;0.10;0.10;;;;;;;;;;4788999;29;20042;-89
2022/04/26 13:02:56;;;;;;;0.10;0.10;;;;;;;;;;4804087;29;20050;-89
2022/04/26 13:05:22;;;;;;;0.20;0.20;;;;;;;;;;4789264;29;20042;-89
2022/04/26 13:07:48;;;;;;;0.10;0.10;;;;;;;;;;4812561;29;20371;-89
2022/04/26 13:10:15;;;;;;;0.10;0.10;;;;;;;;;;4822310;29;20039;-88
2022/04/26 13:12:41;;;;;;;0.17;0.17;;;;;;;;;;4806621;29;20038;-88
2022/04/26 13:15:08;;;;;;;0.10;0.10;;;;;;;;;;4806818;29;20047;-88
2022/04/26 13:17:39;;;;;;;0.10;0.10;;;;;;;;;;4792299;29;20349;-89
2022/04/26 13:20:06;;;;;;;0.20;0.20;;;;;;;;;;4803812;29;20400;-88
2022/04/26 13:22:35;;;;;;;0.10;0.10;;;;;;;;;;4802125;29;20122;-89
2022/04/26 13:25:05;;;;;;;0.10;0.10;;;;;;;;;;4788354;29;20142;-90
2022/04/26 13:27:31;;;;;;;0.20;0.20;;;;;;;;;;4803408;29;20059;-90
2022/04/26 13:29:57;;;;;;;0.10;0.10;;;;;;;;;;4785907;29;20119;-90
2022/04/26 13:32:23;;;;;;;0.40;0.20;;;;;;;;;;4784296;29;20050;-89
2022/04/26 13:34:52;;;;;;;0.10;0.10;;;;;;;;;;4789263;29;20047;-91
2022/04/26 13:37:19;;;;;;;0.15;0.15;;;;;;;;;;4780621;30;20104;-90
2022/04/26 13:39:46;;;;;;;0.10;0.10;;;;;;;;;;4781936;30;20051;-91
2022/04/26 13:42:13;;;;;;;0.10;0.10;;;;;;;;;;4782540;29;20061;-94
2022/04/26 13:44:40;;;;;;;0.10;0.10;;;;;;;;;;4766508;30;20077;-93
2022/04/26 13:47:06;;;;;;;0.10;0.10;;;;;;;;;;4775974;29;20844;-92
2022/04/26 13:49:36;;;;;;;0.10;0.10;;;;;;;;;;4780979;30;20047;-91
2022/04/26 13:52:02;;;;;;;0.10;0.10;;;;;;;;;;4780763;29;20047;-91
2022/04/26 13:54:29;;;;;;;0.10;0.10;;;;;;;;;;4780632;30;20055;-91
2022/04/26 13:56:55;;;;;;;0.43;0.43;;;;;;;;;;4780366;30;20054;-90
2022/04/26 13:59:22;;;;;;;0.10;0.10;;;;;;;;;;4780465;30;20499;-92
2022/04/26 14:01:49;;;;;;;0.10;0.10;;;;;;;;;;4785771;29;20046;-91
2022/04/26 14:04:15;;;;;;;0.10;0.10;;;;;;;;;;4783678;29;20122;-92
2022/04/26 14:06:41;;;;;;;0.10;0.10;;;;;;;;;;4780619;30;20107;-90
2022/04/26 14:09:07;;;;;;;0.10;0.10;;;;;;;;;;4795660;29;20039;-93
2022/04/26 14:11:33;;;;;;;0.10;0.10;;;;;;;;;;4781426;30;20108;-90
2022/04/26 14:22:13;;;;;;;0.10;0.10;;;;;;;;;;4800226;29;20051;-90
2022/04/26 14:24:39;;;;;;;0.20;0.20;;;;;;;;;;4784874;29;20066;-90
2022/04/26 14:27:05;;;;;;;0.10;0.10;;;;;;;;;;4800881;29;20129;-90
2022/04/26 14:29:33;;;;;;;0.25;0.25;;;;;;;;;;4800374;29;20454;-89
2022/04/26 14:32:02;;;;;;;0.32;0.20;;;;;;;;;;4801002;29;20046;-92
2022/04/26 14:34:29;;;;;;;0.10;0.10;;;;;;;;;;4786957;29;20179;-94
2022/04/26 14:36:55;;;;;;;0.10;0.10;;;;;;;;;;4786373;29;20147;-91
2022/04/26 14:39:21;;;;;;;0.10;0.10;;;;;;;;;;4802548;29;20131;-90
2022/04/26 14:41:47;;;;;;;0.10;0.10;;;;;;;;;;4812348;29;20867;-90
2022/04/26 14:44:13;;;;;;;0.10;0.10;;;;;;;;;;4813864;29;20038;-91
2022/04/26 14:46:39;;;;;;;0.15;0.15;;;;;;;;;;4822053;29;20136;-93
2022/04/26 14:49:06;;;;;;;0.10;0.10;;;;;;;;;;4807650;29;20089;-92
2022/04/26 14:51:32;;;;;;;0.10;0.10;;;;;;;;;;4813856;29;20054;-91
2022/04/26 14:53:59;;;;;;;0.10;0.10;;;;;;;;;;4824616;29;20050;-92
2022/04/26 14:56:25;;;;;;;0.10;0.10;;;;;;;;;;4809037;29;20062;-93
2022/04/26 14:58:51;;;;;;;0.15;0.15;;;;;;;;;;4752755;30;20460;-92
2022/04/26 15:01:17;;;;;;;0.10;0.10;;;;;;;;;;4752956;30;20051;-92
2022/04/26 15:03:44;;;;;;;0.10;0.10;;;;;;;;;;4753424;30;20051;-91
2022/04/26 15:06:10;;;;;;;0.10;0.10;;;;;;;;;;4753234;30;20079;-91
2022/04/26 15:11:21;;;;;;;0.10;0.10;;;;;;;;;;4770272;30;20055;-91
2022/04/26 15:16:37;;;;;;;0.22;0.22;;;;;;;;;;4801234;29;20054;-92
2022/04/26 15:19:06;;;;;;;0.10;0.10;;;;;;;;;;4791187;29;20047;-95
2022/04/26 15:21:32;;;;;;;0.10;0.10;;;;;;;;;;4788172;29;20054;-90
2022/04/26 15:23:58;;;;;;;0.10;0.10;;;;;;;;;;4785632;29;20114;-91
2022/04/26 15:26:27;;;;;;;0.10;0.10;;;;;;;;;;4805356;29;20496;-91
2022/04/26 15:28:53;;;;;;;0.15;0.15;;;;;;;;;;4791021;29;20042;-91
2022/04/26 15:31:19;;;;;;;0.10;0.10;;;;;;;;;;4785287;29;20441;-91
2022/04/26 15:33:46;;;;;;;0.10;0.10;;;;;;;;;;4806030;29;20077;-92
2022/04/26 15:36:12;;;;;;;0.10;0.10;;;;;;;;;;4790798;29;20050;-91
2022/04/26 15:38:39;;;;;;;0.10;0.10;;;;;;;;;;4790824;29;20086;-90
2022/04/26 15:41:08;;;;;;;0.20;0.20;;;;;;;;;;4805891;29;20519;-91
2022/04/26 15:43:35;;;;;;;0.10;0.10;;;;;;;;;;4790665;29;20057;-90
2022/04/26 15:46:09;;;;;;;0.10;0.10;;;;;;;;;;4790609;29;20075;-91
2022/04/26 15:48:44;;;;;;;0.20;0.20;;;;;;;;;;4787139;30;20443;-91
2022/04/26 15:51:10;;;;;;;0.15;0.13;;;;;;;;;;4788161;30;20051;-93
2022/04/26 15:53:36;;;;;;;0.10;0.10;;;;;;;;;;4788407;30;20107;-90
2022/04/26 15:56:03;;;;;;;0.10;0.10;;;;;;;;;;4787468;29;20496;-91
2022/04/26 15:58:29;;;;;;;0.20;0.20;;;;;;;;;;4787669;30;20498;-91
2022/04/26 16:00:57;;;;;;;0.10;0.10;;;;;;;;;;4787249;30;20130;-91
2022/04/26 16:03:23;;;;;;;0.10;0.10;;;;;;;;;;4790149;29;20468;-89
2022/04/26 16:05:49;;;;;;;0.10;0.10;;;;;;;;;;4791210;29;20066;-91
2022/04/26 16:08:15;;;;;;;0.10;0.10;;;;;;;;;;4805130;29;20039;-91
2022/04/26 16:21:39;;;;;;;0.10;0.10;;;;;;;;;;4803983;29;20111;-92
2022/04/26 16:24:05;;;;;;;0.10;0.10;;;;;;;;;;4793828;29;20050;-92
2022/04/26 16:26:34;;;;;;;0.10;0.10;;;;;;;;;;4784711;29;20046;-92
2022/04/26 16:29:01;;;;;;;0.10;0.10;;;;;;;;;;4792192;29;20043;-92
2022/04/26 16:31:30;;;;;;;0.10;0.10;;;;;;;;;;4776666;29;20057;-92
2022/04/26 16:34:00;;;;;;;0.10;0.10;;;;;;;;;;4786406;29;20054;-95
2022/04/26 16:36:26;;;;;;;0.10;0.10;;;;;;;;;;4785628;29;20054;-94
2022/04/26 16:38:52;;;;;;;0.10;0.10;;;;;;;;;;4781801;30;20558;-92
2022/04/26 16:41:19;;;;;;;0.10;0.10;;;;;;;;;;4800705;29;20603;-94
2022/04/26 16:43:46;;;;;;;0.10;0.10;;;;;;;;;;4792757;29;20141;-91
2022/04/26 16:46:14;;;;;;;0.10;0.10;;;;;;;;;;4792961;29;20042;-91
2022/04/26 16:48:42;;;;;;;0.17;0.17;;;;;;;;;;4793376;29;20380;-92
2022/04/26 16:51:08;;;;;;;0.20;0.20;;;;;;;;;;4793043;29;20064;-96
2022/04/26 16:53:34;;;;;;;4.65;0.40;;;;;;;;;;4793140;29;20046;-93
2022/04/26 16:56:01;;;;;;;0.10;0.10;;;;;;;;;;4784584;29;20055;-94
2022/04/26 16:58:27;;;;;;;0.20;0.20;;;;;;;;;;4790060;29;20046;-93
2022/04/26 17:00:53;;;;;;;0.28;0.28;;;;;;;;;;4789748;29;20122;-95
2022/04/26 17:03:19;;;;;;;0.20;0.20;;;;;;;;;;4790097;29;20043;-94
2022/04/26 17:05:47;;;;;;;0.10;0.10;;;;;;;;;;4788789;29;20039;-93
2022/04/26 17:08:14;;;;;;;0.10;0.10;;;;;;;;;;4774865;29;20134;-93
2022/04/26 17:10:41;;;;;;;0.10;0.10;;;;;;;;;;4775027;29;20480;-94
2022/04/26 17:13:07;;;;;;;0.20;0.20;;;;;;;;;;4771971;30;20051;-93
2022/04/26 17:15:33;;;;;;;0.10;0.10;;;;;;;;;;4786500;29;20058;-92
2022/04/26 17:17:59;;;;;;;0.10;0.10;;;;;;;;;;4808214;29;20051;-93
2022/04/26 17:20:25;;;;;;;0.10;0.10;;;;;;;;;;4793834;29;20042;-94
2022/04/26 17:22:51;;;;;;;0.10;0.10;;;;;;;;;;4775306;29;20043;-93
2022/04/26 17:25:17;;;;;;;0.10;0.10;;;;;;;;;;4787018;29;20059;-94
2022/04/26 17:27:47;;;;;;;0.10;0.10;;;;;;;;;;4793234;29;20049;-94
2022/04/26 17:30:14;;;;;;;0.20;0.20;;;;;;;;;;4794345;29;20107;-94
2022/04/26 17:32:41;;;;;;;0.10;0.10;;;;;;;;;;4786451;29;20130;-94
2022/04/26 17:35:07;;;;;;;0.10;0.10;;;;;;;;;;4786720;29;20051;-94
2022/04/26 17:37:33;;;;;;;0.10;0.10;;;;;;;;;;4786859;29;20051;-93
2022/04/26 17:39:59;;;;;;;0.10;0.10;;;;;;;;;;4786874;29;20421;-93
2022/04/26 17:42:28;;;;;;;0.10;0.10;;;;;;;;;;4786699;29;20117;-93
2022/04/26 17:44:54;;;;;;;0.10;0.10;;;;;;;;;;4786368;29;20043;-93
2022/04/26 17:47:23;;;;;;;0.20;0.20;;;;;;;;;;4797958;29;20047;-96
2022/04/26 17:49:49;;;;;;;0.10;0.10;;;;;;;;;;4793035;29;20129;-92
2022/04/26 17:52:18;;;;;;;0.10;0.10;;;;;;;;;;4793001;29;20046;-95
2022/04/26 17:57:29;;;;;;;0.20;0.20;;;;;;;;;;4807788;29;20050;-93
2022/04/26 17:59:55;;;;;;;0.10;0.10;;;;;;;;;;4792772;29;20479;-94
2022/04/26 18:02:21;;;;;;;0.10;0.10;;;;;;;;;;4792828;29;20058;-93
2022/04/26 18:04:47;;;;;;;0.20;0.20;;;;;;;;;;4789407;30;20104;-95
2022/04/26 18:07:13;;;;;;;0.10;0.10;;;;;;;;;;4789784;29;20154;-93
2022/04/26 18:09:42;;;;;;;0.20;0.20;;;;;;;;;;4789855;29;20118;-96
2022/04/26 18:12:11;;;;;;;0.10;0.10;;;;;;;;;;4789318;29;20054;-94
2022/04/26 18:14:37;;;;;;;0.10;0.10;;;;;;;;;;4789539;29;20062;-96
2022/04/26 18:17:04;;;;;;;0.20;0.20;;;;;;;;;;4798807;29;20047;-92
2022/04/26 18:19:31;;;;;;;0.10;0.10;;;;;;;;;;4792641;29;20062;-93
2022/04/26 18:21:57;;;;;;;0.10;0.10;;;;;;;;;;4792264;29;20122;-94
2022/04/26 18:24:24;;;;;;;0.30;0.20;;;;;;;;;;4792452;29;20062;-93
2022/04/26 18:26:50;;;;;;;0.10;0.10;;;;;;;;;;4792264;29;20047;-93
2022/04/26 18:29:19;;;;;;;0.20;0.20;;;;;;;;;;4792726;29;20046;-94
2022/04/26 18:31:46;;;;;;;0.10;0.10;;;;;;;;;;4793022;29;20120;-93
2022/04/26 18:34:19;;;;;;;0.10;0.10;;;;;;;;;;4808626;29;20119;-94
2022/04/26 18:36:46;;;;;;;0.10;0.10;;;;;;;;;;4792780;29;20047;-93
2022/04/26 18:39:12;;;;;;;0.10;0.10;;;;;;;;;;4789225;29;20087;-91
2022/04/26 18:41:38;;;;;;;0.10;0.10;;;;;;;;;;4789301;29;20050;-91
2022/04/26 18:44:04;;;;;;;0.10;0.10;;;;;;;;;;4804047;29;20059;-92
2022/04/26 18:46:31;;;;;;;0.10;0.10;;;;;;;;;;4789940;29;20040;-93
2022/04/26 18:48:57;;;;;;;0.10;0.10;;;;;;;;;;4790692;29;20054;-92
2022/04/26 18:51:23;;;;;;;0.10;0.10;;;;;;;;;;4806976;29;20043;-91
2022/04/26 18:53:49;;;;;;;0.10;0.10;;;;;;;;;;4800492;29;20043;-91
2022/04/26 18:56:15;;;;;;;0.10;0.10;;;;;;;;;;4792913;29;20058;-90
2022/04/26 18:58:41;;;;;;;0.17;0.10;;;;;;;;;;4808302;29;20552;-93
2022/04/26 19:01:07;;;;;;;0.10;0.10;;;;;;;;;;4791097;29;20043;-92
2022/04/26 19:03:33;;;;;;;0.10;0.10;;;;;;;;;;4796870;29;20076;-90
2022/04/26 19:05:59;;;;;;;0.10;0.10;;;;;;;;;;4811189;29;20051;-90
2022/04/26 19:08:25;;;;;;;0.20;0.20;;;;;;;;;;4810706;29;20079;-90
2022/04/26 19:13:36;;;;;;;0.10;0.10;;;;;;;;;;4806216;29;20432;-91